Time;durP1;ratioP1;P1;durP2;ratioP2;P2;SDS_P1;SDS_P2;PMS_P1;PMS_P2;Temp;Humidity;BMP_temperature;BMP_pressure;BME280_temperature;BME280_humidity;BME280_pressure;Samples;Min_cycle;Max_cycle;Signal;HPM_P1;HPM_P2
2021/01/01 00:00:39;;;;;;;30.00;18.30;;;;;;;2.50;92.79;100627.70;1750197;81;20931;-35
2021/01/01 00:03:09;;;;;;;28.77;17.45;;;;;;;2.48;92.74;100632.33;1750479;82;20919;-37
2021/01/01 00:05:39;;;;;;;25.77;17.85;;;;;;;2.45;92.69;100631.88;1750584;82;20923;-34
2021/01/01 00:08:10;;;;;;;29.70;17.15;;;;;;;2.43;92.65;100625.88;1750590;82;21204;-35
2021/01/01 00:10:38;;;;;;;28.52;17.73;;;;;;;2.40;92.57;100622.84;1750317;82;20927;-35
2021/01/01 00:13:06;;;;;;;27.75;18.35;;;;;;;2.36;92.55;100622.34;1722722;82;20947;-36
2021/01/01 00:15:34;;;;;;;28.95;18.85;;;;;;;2.30;92.52;100630.75;1749940;82;20920;-35
2021/01/01 00:18:02;;;;;;;25.68;17.17;;;;;;;2.26;92.55;100628.97;1749978;82;21023;-35
2021/01/01 00:20:31;;;;;;;25.30;17.07;;;;;;;2.24;92.62;100633.59;1749847;82;21209;-35
2021/01/01 00:22:59;;;;;;;32.13;16.90;;;;;;;2.24;92.62;100624.25;1749915;82;21070;-36
2021/01/01 00:25:28;;;;;;;29.87;17.85;;;;;;;2.22;92.60;100627.60;1750045;82;21026;-35
2021/01/01 00:27:57;;;;;;;33.33;18.73;;;;;;;2.18;92.56;100630.53;1749895;82;20928;-34
2021/01/01 00:30:26;;;;;;;27.13;17.48;;;;;;;2.15;92.58;100631.33;1749977;82;20927;-36
2021/01/01 00:32:54;;;;;;;28.90;17.00;;;;;;;2.15;92.47;100626.65;1749987;82;21214;-35
2021/01/01 00:35:22;;;;;;;29.60;16.77;;;;;;;2.12;92.43;100641.48;1749844;82;21019;-35
2021/01/01 00:37:50;;;;;;;32.73;18.92;;;;;;;2.08;92.41;100642.27;1749924;82;21018;-35
2021/01/01 00:40:20;;;;;;;30.95;19.12;;;;;;;2.05;92.38;100645.16;1749914;82;21014;-35
2021/01/01 00:42:49;;;;;;;34.35;20.45;;;;;;;2.01;92.31;100633.61;1749918;82;20936;-37
2021/01/01 00:45:17;;;;;;;32.03;19.92;;;;;;;1.98;92.22;100632.68;1750057;82;21542;-35
2021/01/01 00:47:48;;;;;;;35.00;19.70;;;;;;;1.94;92.17;100628.35;1722176;82;21003;-36
2021/01/01 00:50:16;;;;;;;27.73;16.48;;;;;;;1.90;92.16;100627.45;1749926;82;20928;-35
2021/01/01 00:52:44;;;;;;;33.67;16.73;;;;;;;1.90;92.16;100617.23;1749829;82;20948;-35
2021/01/01 00:55:13;;;;;;;27.10;16.17;;;;;;;1.91;92.05;100622.79;1750065;82;20987;-35
2021/01/01 00:57:41;;;;;;;21.25;15.40;;;;;;;1.92;91.91;100626.19;1749944;82;21163;-36
2021/01/01 01:00:10;;;;;;;25.23;15.63;;;;;;;1.92;91.85;100623.63;1745801;81;20932;-35
2021/01/01 01:02:39;;;;;;;29.55;17.12;;;;;;;1.91;91.65;100618.95;1735983;82;21055;-35
2021/01/01 01:05:08;;;;;;;22.93;14.68;;;;;;;1.91;91.58;100622.79;1735947;82;20934;-34
2021/01/01 01:07:37;;;;;;;26.60;16.57;;;;;;;1.91;91.47;100614.25;1735976;82;20912;-36
2021/01/01 01:10:08;;;;;;;25.40;16.05;;;;;;;1.90;91.41;100619.79;1735906;82;21203;-36
2021/01/01 01:12:37;;;;;;;30.72;18.70;;;;;;;1.88;91.35;100605.26;1735946;82;20988;-36
2021/01/01 01:15:10;;;;;;;32.78;17.52;;;;;;;1.89;91.24;100616.77;1735942;82;20971;-35
2021/01/01 01:17:40;;;;;;;25.90;16.12;;;;;;;1.90;91.14;100614.69;1735847;82;20929;-36
2021/01/01 01:20:11;;;;;;;29.87;18.60;;;;;;;1.88;91.04;100623.97;1735931;82;20991;-35
2021/01/01 01:22:39;;;;;;;27.62;18.07;;;;;;;1.88;91.04;100620.58;1735982;82;22205;-36
2021/01/01 01:25:08;;;;;;;32.90;19.65;;;;;;;1.84;91.02;100613.27;1735891;82;20940;-35
2021/01/01 01:27:38;;;;;;;31.50;17.42;;;;;;;1.81;90.98;100608.97;1735914;82;20979;-37
2021/01/01 01:30:08;;;;;;;33.60;18.45;;;;;;;1.79;90.94;100613.19;1735936;82;20999;-37
2021/01/01 01:32:37;;;;;;;31.35;19.00;;;;;;;1.76;90.89;100607.15;1736046;82;20877;-37
2021/01/01 01:35:06;;;;;;;32.48;18.75;;;;;;;1.71;90.90;100601.55;1735868;82;21373;-35
2021/01/01 01:37:35;;;;;;;29.18;18.07;;;;;;;1.67;90.92;100600.16;1735885;82;21640;-36
2021/01/01 01:40:05;;;;;;;29.77;18.05;;;;;;;1.65;90.91;100603.98;1735865;82;20948;-35
2021/01/01 01:42:33;;;;;;;32.13;17.95;;;;;;;1.64;90.90;100597.55;1735922;82;21518;-35
2021/01/01 01:45:03;;;;;;;29.92;18.48;;;;;;;1.62;90.87;100586.45;1735903;82;21023;-35
2021/01/01 01:47:31;;;;;;;32.03;18.17;;;;;;;1.62;90.94;100600.06;1735946;82;21370;-36
2021/01/01 01:49:59;;;;;;;33.88;18.40;;;;;;;1.60;90.96;100597.89;1735754;82;21003;-35
2021/01/01 01:52:27;;;;;;;32.13;18.85;;;;;;;1.63;90.94;100599.23;1735849;82;20936;-36
2021/01/01 01:54:55;;;;;;;28.70;16.32;;;;;;;1.66;90.90;100600.59;1735880;82;21015;-35
2021/01/01 01:57:24;;;;;;;32.38;17.37;;;;;;;1.67;90.83;100589.55;1735962;82;21514;-36
2021/01/01 01:59:56;;;;;;;32.50;16.97;;;;;;;1.70;90.74;100596.39;1736043;81;22217;-35
2021/01/01 02:02:25;;;;;;;28.77;17.70;;;;;;;1.68;90.67;100584.89;1749832;82;20951;-36
2021/01/01 02:04:54;;;;;;;30.40;17.65;;;;;;;1.70;90.59;100584.51;1749926;82;21015;-36
2021/01/01 02:07:22;;;;;;;32.00;18.77;;;;;;;1.72;90.47;100580.30;1749913;81;20967;-36
2021/01/01 02:09:50;;;;;;;32.67;17.67;;;;;;;1.75;90.38;100573.52;1749842;82;20979;-35
2021/01/01 02:12:22;;;;;;;34.25;18.17;;;;;;;1.73;90.25;100577.30;1749840;82;20987;-35
2021/01/01 02:14:52;;;;;;;33.28;18.90;;;;;;;1.69;90.10;100565.32;1749765;82;21007;-36
2021/01/01 02:17:20;;;;;;;33.08;18.15;;;;;;;1.67;89.99;100570.41;1749779;82;20991;-35
2021/01/01 02:20:04;;;;;;;34.18;18.77;;;;;;;1.65;89.91;100566.97;1749799;82;20991;-36
2021/01/01 02:22:35;;;;;;;35.33;18.20;;;;;;;1.61;89.91;100572.81;1749885;82;21054;-34
2021/01/01 02:25:09;;;;;;;30.77;17.98;;;;;;;1.57;89.90;100572.31;1749864;82;22256;-36
2021/01/01 02:27:37;;;;;;;36.35;17.70;;;;;;;1.54;89.84;100569.30;1749890;82;20995;-37
2021/01/01 02:30:08;;;;;;;31.97;18.98;;;;;;;1.52;89.81;100558.20;1748656;82;20947;-35
2021/01/01 02:32:37;;;;;;;32.88;19.32;;;;;;;1.49;89.78;100547.06;1749838;82;20932;-35
2021/01/01 02:35:07;;;;;;;34.78;18.52;;;;;;;1.48;89.82;100544.06;1749884;82;20979;-35
2021/01/01 02:37:36;;;;;;;28.50;18.15;;;;;;;1.46;89.79;100549.56;1749948;82;22049;-36
2021/01/01 02:40:07;;;;;;;30.68;17.20;;;;;;;1.46;89.81;100545.73;1749684;82;20972;-36
2021/01/01 02:42:35;;;;;;;28.27;16.52;;;;;;;1.46;89.75;100544.45;1749922;82;20983;-37
2021/01/01 02:45:04;;;;;;;29.60;17.82;;;;;;;1.43;89.68;100543.56;1749788;80;20947;-36
2021/01/01 02:47:32;;;;;;;29.60;17.55;;;;;;;1.41;89.55;100542.67;1749834;82;21038;-36
2021/01/01 02:50:01;;;;;;;35.23;18.73;;;;;;;1.39;89.49;100546.02;1749885;82;21192;-36
2021/01/01 02:52:30;;;;;;;33.28;19.75;;;;;;;1.36;89.47;100548.07;1749924;82;20944;-36
2021/01/01 02:54:58;;;;;;;33.73;18.95;;;;;;;1.32;89.45;100547.56;1749781;82;20916;-36
2021/01/01 02:57:26;;;;;;;28.73;16.73;;;;;;;1.28;89.43;100540.28;1749882;82;21090;-36
2021/01/01 02:59:55;;;;;;;33.13;19.62;;;;;;;1.26;89.37;100535.97;1749825;82;21006;-37
2021/01/01 03:02:23;;;;;;;33.42;19.70;;;;;;;1.23;89.43;100538.45;1737480;82;22555;-36
2021/01/01 03:04:51;;;;;;;33.48;17.75;;;;;;;1.21;89.51;100533.73;1735739;82;20944;-35
2021/01/01 03:07:19;;;;;;;32.30;19.00;;;;;;;1.23;89.59;100536.75;1735916;82;21000;-35
2021/01/01 03:09:49;;;;;;;31.25;17.42;;;;;;;1.28;89.60;100539.41;1735771;82;20988;-35
2021/01/01 03:12:17;;;;;;;35.78;18.50;;;;;;;1.34;89.56;100540.80;1735844;82;20932;-35
2021/01/01 03:14:47;;;;;;;32.78;18.17;;;;;;;1.38;89.54;100541.31;1735755;82;21373;-36
2021/01/01 03:17:15;;;;;;;34.55;19.23;;;;;;;1.44;89.42;100538.03;1735806;82;21021;-37
2021/01/01 03:19:43;;;;;;;35.60;19.05;;;;;;;1.50;89.35;100523.27;1735744;82;21123;-36
2021/01/01 03:22:11;;;;;;;38.05;18.92;;;;;;;1.54;89.28;100517.39;1735854;82;20980;-37
2021/01/01 03:24:39;;;;;;;36.20;19.67;;;;;;;1.58;89.21;100524.27;1735819;82;20873;-36
2021/01/01 03:27:08;;;;;;;36.80;20.12;;;;;;;1.62;89.18;100534.13;1735836;82;21196;-35
2021/01/01 03:29:37;;;;;;;36.30;18.82;;;;;;;1.65;88.98;100529.09;1735670;82;21011;-36
2021/01/01 03:32:06;;;;;;;34.48;19.75;;;;;;;1.67;88.86;100524.87;1735849;82;21499;-36
2021/01/01 03:34:34;;;;;;;32.42;18.82;;;;;;;1.70;88.73;100519.82;1735787;82;21000;-35
2021/01/01 03:37:02;;;;;;;28.27;16.77;;;;;;;1.75;88.65;100516.09;1735822;82;21126;-35
2021/01/01 03:39:31;;;;;;;31.07;16.73;;;;;;;1.77;88.38;100513.14;1735821;82;21453;-35
2021/01/01 03:41:59;;;;;;;31.93;18.15;;;;;;;1.80;88.21;100514.48;1735704;82;21003;-36
2021/01/01 03:44:28;;;;;;;27.27;17.07;;;;;;;1.84;88.00;100515.84;1735896;81;20944;-36
2021/01/01 03:46:56;;;;;;;26.85;15.43;;;;;;;1.88;87.85;100515.90;1735911;82;21570;-35
2021/01/01 03:49:24;;;;;;;33.25;17.20;;;;;;;1.92;87.71;100517.27;1736042;82;20999;-35
2021/01/01 03:51:52;;;;;;;25.90;16.25;;;;;;;1.92;87.65;100518.55;1735960;82;21202;-36
2021/01/01 03:54:21;;;;;;;25.80;15.68;;;;;;;1.92;87.41;100514.72;1735866;82;20980;-36
2021/01/01 03:56:49;;;;;;;30.20;18.30;;;;;;;1.92;87.17;100510.89;1736038;82;21118;-36
2021/01/01 03:59:18;;;;;;;30.17;16.70;;;;;;;1.88;86.98;100512.91;1735941;82;20936;-36
2021/01/01 04:01:46;;;;;;;26.42;16.05;;;;;;;1.83;86.87;100516.69;1742514;81;21004;-35
2021/01/01 04:04:14;;;;;;;28.00;15.53;;;;;;;1.77;86.79;100520.41;1749886;82;21355;-36
2021/01/01 04:06:44;;;;;;;26.42;15.18;;;;;;;1.74;86.69;100519.48;1749910;82;21314;-35
2021/01/01 04:09:12;;;;;;;28.12;16.55;;;;;;;1.71;86.64;100515.16;1749972;82;21385;-36
2021/01/01 04:11:40;;;;;;;29.65;16.35;;;;;;;1.71;86.54;100518.98;1749803;82;20935;-35
2021/01/01 04:14:08;;;;;;;27.50;16.17;;;;;;;1.66;86.47;100515.09;1750055;82;20995;-36
2021/01/01 04:16:44;;;;;;;30.02;16.82;;;;;;;1.65;86.55;100508.67;1749952;82;21285;-36
2021/01/01 04:19:12;;;;;;;27.40;16.75;;;;;;;1.65;86.28;100503.16;1749823;82;21042;-35
2021/01/01 04:21:50;;;;;;;32.35;16.75;;;;;;;1.72;85.87;100504.12;1749881;82;20979;-35
2021/01/01 04:24:18;;;;;;;27.07;15.85;;;;;;;1.75;85.78;100496.95;1749940;80;21011;-36
2021/01/01 04:26:47;;;;;;;32.65;17.15;;;;;;;1.76;85.65;100504.61;1749905;82;20912;-36
2021/01/01 04:29:17;;;;;;;29.20;16.75;;;;;;;1.76;85.61;100497.39;1749937;82;21214;-35
2021/01/01 04:31:46;;;;;;;27.17;16.07;;;;;;;1.76;85.46;100496.95;1749843;82;21003;-36
2021/01/01 04:34:15;;;;;;;27.62;14.70;;;;;;;1.78;85.34;100493.17;1749891;82;20999;-36
2021/01/01 04:36:43;;;;;;;28.52;15.88;;;;;;;1.79;85.25;100488.50;1749841;82;20995;-34
2021/01/01 04:39:12;;;;;;;31.30;16.75;;;;;;;1.80;85.20;100482.56;1749980;82;20920;-35
2021/01/01 04:41:41;;;;;;;29.37;15.48;;;;;;;1.81;85.11;100483.89;1749924;82;22620;-36
2021/01/01 04:44:09;;;;;;;28.38;15.08;;;;;;;1.85;84.93;100474.16;1749915;82;20979;-35
2021/01/01 04:46:38;;;;;;;28.45;15.05;;;;;;;1.93;84.78;100470.48;1749910;82;20920;-37
2021/01/01 04:49:07;;;;;;;30.90;16.77;;;;;;;2.04;84.11;100462.12;1749872;82;20967;-35
2021/01/01 04:51:35;;;;;;;27.35;16.85;;;;;;;2.13;83.42;100457.16;1750003;82;20983;-36
2021/01/01 04:54:05;;;;;;;27.65;14.90;;;;;;;2.25;82.32;100444.59;1722543;82;21142;-35
2021/01/01 04:56:33;;;;;;;32.03;15.23;;;;;;;2.36;81.73;100442.61;1749821;82;20987;-37
2021/01/01 04:59:03;;;;;;;30.35;16.00;;;;;;;2.41;81.29;100426.96;1749930;82;20999;-35
2021/01/01 05:01:31;;;;;;;28.92;15.83;;;;;;;2.41;81.13;100423.13;1747167;81;20976;-37
2021/01/01 05:03:59;;;;;;;32.60;15.83;;;;;;;2.43;80.95;100425.28;1735876;82;20995;-35
2021/01/01 05:06:28;;;;;;;33.50;16.15;;;;;;;2.44;80.86;100432.11;1735988;82;21222;-36
2021/01/01 05:08:59;;;;;;;31.23;16.20;;;;;;;2.44;80.94;100453.39;1735916;82;21432;-36
2021/01/01 05:11:28;;;;;;;29.63;16.57;;;;;;;2.44;80.79;100472.56;1735799;82;20885;-35
2021/01/01 05:13:59;;;;;;;29.07;17.15;;;;;;;2.46;80.84;100490.89;1735878;82;20995;-35
2021/01/01 05:16:29;;;;;;;31.62;17.10;;;;;;;2.42;80.88;100501.06;1735483;82;20928;-36
2021/01/01 05:18:58;;;;;;;35.17;18.55;;;;;;;2.36;80.94;100529.08;1735846;82;21201;-36
2021/01/01 05:21:28;;;;;;;35.98;18.37;;;;;;;2.28;81.12;100549.82;1735868;82;20967;-36
2021/01/01 05:23:56;;;;;;;36.03;17.42;;;;;;;2.24;80.97;100495.65;1735903;82;20972;-34
2021/01/01 05:26:28;;;;;;;36.15;18.23;;;;;;;2.22;80.90;100472.66;1735787;82;20996;-36
2021/01/01 05:29:07;;;;;;;40.67;19.12;;;;;;;2.17;80.98;100490.00;1735928;82;21444;-36
2021/01/01 05:31:39;;;;;;;34.00;19.20;;;;;;;2.13;81.13;100505.69;1735932;82;21200;-36
2021/01/01 05:34:20;;;;;;;36.77;18.73;;;;;;;2.10;81.27;100488.63;1735917;82;21554;-35
2021/01/01 05:36:43;;;;;;;38.25;19.67;;;;;;;2.09;81.32;100492.42;1735205;82;21439;-35
2021/01/01 05:39:20;;;;;;;34.20;18.20;;;;;;;2.08;81.32;100490.70;1735877;82;20885;-35
2021/01/01 05:41:52;;;;;;;36.00;17.25;;;;;;;2.09;81.34;100497.53;1735854;82;21042;-36
2021/01/01 05:44:31;;;;;;;34.27;17.37;;;;;;;2.09;81.37;100497.13;1735915;82;21440;-35
2021/01/01 05:47:09;;;;;;;34.73;17.17;;;;;;;2.09;81.38;100494.98;1735826;82;21071;-36
2021/01/01 05:49:40;;;;;;;29.00;15.65;;;;;;;2.09;81.32;100484.77;1735886;82;21396;-36
2021/01/01 05:52:21;;;;;;;25.75;15.13;;;;;;;2.10;81.19;100475.87;1735846;82;21411;-36
2021/01/01 05:55:03;;;;;;;23.42;12.53;;;;;;;2.14;80.78;100472.92;1735924;82;21142;-36
2021/01/01 05:57:37;;;;;;;23.80;13.22;;;;;;;2.21;80.23;100470.94;1735982;82;22017;-36
2021/01/01 06:00:09;;;;;;;26.37;13.78;;;;;;;2.30;79.96;100479.17;1735845;82;21028;-37
2021/01/01 06:02:42;;;;;;;26.90;14.25;;;;;;;2.35;79.28;100467.72;1742601;82;20971;-36
2021/01/01 06:05:11;;;;;;;33.85;15.90;;;;;;;2.44;78.47;100462.34;1749806;82;20947;-38
2021/01/01 06:07:41;;;;;;;31.02;15.58;;;;;;;2.53;77.87;100451.40;1749865;82;20967;-38
2021/01/01 06:10:11;;;;;;;29.18;14.70;;;;;;;2.57;77.73;100444.21;1749847;82;21219;-37
2021/01/01 06:12:39;;;;;;;27.55;16.12;;;;;;;2.59;77.69;100449.36;1749893;82;21447;-35
2021/01/01 06:15:09;;;;;;;28.00;15.43;;;;;;;2.61;77.54;100444.25;1749945;82;20923;-36
2021/01/01 06:17:49;;;;;;;33.30;14.73;;;;;;;2.61;77.69;100448.09;1749836;82;20971;-36
2021/01/01 06:20:22;;;;;;;27.80;15.75;;;;;;;2.63;77.74;100444.72;1749885;82;20991;-36
2021/01/01 06:23:01;;;;;;;27.58;15.30;;;;;;;2.68;77.74;100449.48;1749927;82;21196;-37
2021/01/01 06:25:29;;;;;;;28.20;15.88;;;;;;;2.73;77.65;100446.99;1749730;82;20931;-38
2021/01/01 06:27:59;;;;;;;29.35;16.80;;;;;;;2.78;77.21;100454.30;1749292;82;21078;-37
2021/01/01 06:30:28;;;;;;;33.40;17.32;;;;;;;2.84;76.92;100457.37;1749897;82;20995;-35
2021/01/01 06:32:57;;;;;;;31.55;16.15;;;;;;;2.91;76.33;100463.43;1749763;82;20920;-36
2021/01/01 06:35:25;;;;;;;26.80;15.15;;;;;;;2.94;76.48;100459.63;1722876;82;21288;-35
2021/01/01 06:37:57;;;;;;;33.45;17.85;;;;;;;2.97;76.26;100454.12;1749845;82;20975;-35
2021/01/01 06:40:35;;;;;;;28.50;15.13;;;;;;;2.98;75.98;100463.94;1749728;82;20931;-37
2021/01/01 06:43:07;;;;;;;28.55;16.48;;;;;;;2.98;76.14;100465.22;1749916;82;20987;-37
2021/01/01 06:45:41;;;;;;;32.08;16.87;;;;;;;3.00;76.08;100470.77;1749852;82;20995;-36
2021/01/01 06:48:20;;;;;;;33.83;16.25;;;;;;;3.01;76.01;100471.65;1749827;82;21446;-36
2021/01/01 06:50:52;;;;;;;39.53;16.73;;;;;;;3.02;75.87;100464.41;1746865;82;21030;-36
2021/01/01 06:53:30;;;;;;;28.65;15.75;;;;;;;3.04;75.56;100455.50;1750029;82;21481;-36
2021/01/01 06:56:12;;;;;;;26.77;14.65;;;;;;;3.06;75.06;100452.53;1749794;82;21133;-36
2021/01/01 06:58:40;;;;;;;27.67;14.78;;;;;;;3.07;75.39;100459.37;1749856;82;21036;-34
2021/01/01 07:01:16;;;;;;;30.25;15.72;;;;;;;3.11;75.38;100448.33;1749747;82;21202;-36
2021/01/01 07:03:44;;;;;;;24.60;14.53;;;;;;;3.11;75.43;100474.75;1738575;81;21505;-36
2021/01/01 07:06:18;;;;;;;30.62;15.75;;;;;;;3.14;75.50;100493.97;1735853;82;20917;-38
2021/01/01 07:08:46;;;;;;;32.63;16.70;;;;;;;3.18;75.37;100497.87;1735726;82;20995;-36
2021/01/01 07:11:27;;;;;;;28.38;15.35;;;;;;;3.20;75.57;100507.27;1735887;81;21426;-34
2021/01/01 07:14:08;;;;;;;29.00;16.35;;;;;;;3.22;75.75;100500.91;1735825;82;21387;-35
2021/01/01 07:16:39;;;;;;;26.95;13.98;;;;;;;3.23;75.52;100494.95;1735753;82;20991;-36
2021/01/01 07:19:07;;;;;;;24.25;14.00;;;;;;;3.25;75.41;100499.23;1735827;82;20932;-38
2021/01/01 07:21:35;;;;;;;25.32;13.93;;;;;;;3.27;75.34;100512.05;1735864;82;20968;-36
2021/01/01 07:24:05;;;;;;;28.17;15.20;;;;;;;3.31;75.41;100511.24;1735890;82;20999;-36
2021/01/01 07:26:33;;;;;;;24.07;14.00;;;;;;;3.34;75.19;100512.56;1736084;81;22312;-37
2021/01/01 07:29:03;;;;;;;21.93;13.55;;;;;;;3.35;75.13;100518.11;1735904;82;20948;-36
2021/01/01 07:31:31;;;;;;;21.87;13.38;;;;;;;3.36;74.91;100533.06;1735941;82;20929;-35
2021/01/01 07:34:08;;;;;;;21.07;12.93;;;;;;;3.40;74.96;100533.09;1735949;82;21003;-34
2021/01/01 07:36:36;;;;;;;21.48;12.25;;;;;;;3.45;75.00;100537.88;1736015;82;20995;-37
2021/01/01 07:39:05;;;;;;;26.50;14.28;;;;;;;3.51;74.97;100542.19;1735938;82;21199;-35
2021/01/01 07:41:33;;;;;;;22.40;13.18;;;;;;;3.55;74.98;100539.26;1735915;82;21007;-35
2021/01/01 07:44:03;;;;;;;24.92;14.65;;;;;;;3.59;75.09;100529.08;1736069;82;20971;-35
2021/01/01 07:46:31;;;;;;;24.75;13.13;;;;;;;3.62;75.11;100530.80;1735960;81;20964;-36
2021/01/01 07:49:00;;;;;;;26.07;12.53;;;;;;;3.67;75.25;100536.86;1736069;82;21067;-35
2021/01/01 07:51:28;;;;;;;28.32;14.80;;;;;;;3.70;75.39;100528.33;1735980;82;21382;-36
2021/01/01 07:53:58;;;;;;;27.27;14.85;;;;;;;3.70;75.54;100527.92;1733582;82;21098;-36
2021/01/01 07:56:26;;;;;;;24.75;13.60;;;;;;;3.72;75.71;100526.23;1736069;82;21546;-38
2021/01/01 07:58:55;;;;;;;25.20;14.28;;;;;;;3.71;76.13;100515.56;1735935;82;21027;-36
2021/01/01 08:01:23;;;;;;;24.10;13.45;;;;;;;3.71;76.13;100515.56;1735962;82;21039;-35
2021/01/01 08:03:52;;;;;;;26.75;14.70;;;;;;;3.67;76.60;100519.34;1741574;81;21483;-35
2021/01/01 08:06:20;;;;;;;27.80;13.18;;;;;;;3.64;76.84;100516.31;1744112;81;20940;-37
2021/01/01 08:08:49;;;;;;;29.20;14.43;;;;;;;3.62;77.29;100509.03;1744138;82;20960;-38
2021/01/01 08:11:18;;;;;;;24.15;13.53;;;;;;;3.59;77.52;100507.32;1743977;82;21129;-37
2021/01/01 08:13:46;;;;;;;24.40;13.30;;;;;;;3.59;77.91;100523.09;1744117;82;21165;-35
2021/01/01 08:16:16;;;;;;;27.75;14.63;;;;;;;3.56;78.57;100524.33;1744265;82;21502;-36
2021/01/01 08:18:44;;;;;;;28.52;16.00;;;;;;;3.52;79.65;100513.62;1743994;82;20999;-35
2021/01/01 08:21:12;;;;;;;28.20;15.38;;;;;;;3.43;80.30;100520.37;1744097;82;20915;-35
2021/01/01 08:24:02;;;;;;;33.00;14.98;;;;;;;3.36;80.76;100510.03;1744177;82;21458;-37
2021/01/01 08:26:36;;;;;;;36.83;16.97;;;;;;;3.29;81.65;100499.73;1744030;82;21043;-37
2021/01/01 08:29:09;;;;;;;26.07;15.65;;;;;;;3.21;82.46;100499.19;1744154;82;21359;-36
2021/01/01 08:31:38;;;;;;;27.48;14.90;;;;;;;3.19;83.17;100502.16;1715061;82;20896;-36
2021/01/01 08:34:06;;;;;;;28.35;15.40;;;;;;;3.12;83.73;100504.61;1744041;81;20967;-36
2021/01/01 08:36:36;;;;;;;26.35;14.93;;;;;;;3.09;84.56;100525.03;1744081;82;20991;-37
2021/01/01 08:39:14;;;;;;;27.35;16.02;;;;;;;3.08;85.05;100528.44;1744175;82;20995;-35
2021/01/01 08:41:44;;;;;;;25.77;15.13;;;;;;;3.08;85.45;100523.75;1744023;82;21370;-35
2021/01/01 08:44:13;;;;;;;25.92;15.30;;;;;;;3.08;85.80;100509.25;1744107;82;20928;-37
2021/01/01 08:46:41;;;;;;;31.07;15.68;;;;;;;3.06;86.24;100501.13;1744000;82;20908;-36
2021/01/01 08:49:20;;;;;;;28.23;16.32;;;;;;;3.01;86.62;100494.23;1744117;82;21012;-37
2021/01/01 08:51:48;;;;;;;26.62;15.13;;;;;;;3.05;86.85;100482.35;1744197;82;21537;-37
2021/01/01 08:54:24;;;;;;;25.05;15.28;;;;;;;3.03;87.15;100509.61;1740064;82;21393;-36
2021/01/01 08:56:59;;;;;;;24.85;14.85;;;;;;;3.04;87.32;100502.81;1744084;82;20967;-35
2021/01/01 08:59:28;;;;;;;25.82;15.98;;;;;;;3.07;87.31;100496.02;1744241;82;20889;-38
2021/01/01 09:01:59;;;;;;;23.10;14.35;;;;;;;3.09;87.40;100473.03;1743967;82;21505;-36
2021/01/01 09:04:29;;;;;;;26.45;15.53;;;;;;;3.10;87.36;100481.98;1737378;81;20920;-37
2021/01/01 09:07:02;;;;;;;29.05;15.53;;;;;;;3.11;87.42;100520.80;1735895;82;21370;-38
2021/01/01 09:09:32;;;;;;;25.27;14.18;;;;;;;3.10;87.65;100529.31;1735870;82;21422;-36
2021/01/01 09:12:20;;;;;;;27.58;14.58;;;;;;;3.09;87.85;100503.73;1735975;82;20988;-36
2021/01/01 09:14:53;;;;;;;25.30;15.38;;;;;;;3.07;87.86;100493.46;1735931;82;21039;-36
2021/01/01 09:17:25;;;;;;;25.32;14.03;;;;;;;3.04;87.97;100484.47;1735995;82;20984;-36
2021/01/01 09:20:06;;;;;;;28.17;15.98;;;;;;;3.05;88.23;100509.21;1735890;82;21196;-35
2021/01/01 09:22:35;;;;;;;27.48;14.90;;;;;;;3.04;88.33;100467.00;1735872;82;21538;-37
2021/01/01 09:25:24;;;;;;;24.80;15.15;;;;;;;3.01;88.48;100493.39;1735892;82;20980;-37
2021/01/01 09:27:53;;;;;;;30.27;15.65;;;;;;;3.00;88.62;100503.18;1735781;82;21004;-37
2021/01/01 09:30:25;;;;;;;27.17;15.38;;;;;;;2.98;88.78;100489.52;1735888;82;21094;-38
2021/01/01 09:32:57;;;;;;;23.55;13.58;;;;;;;2.97;88.84;100500.59;1735827;82;21118;-37
2021/01/01 09:35:27;;;;;;;25.30;14.43;;;;;;;2.95;89.05;100505.66;1735843;82;21518;-38
2021/01/01 09:37:59;;;;;;;22.73;14.87;;;;;;;2.93;89.48;100507.78;1735979;82;20988;-35
2021/01/01 09:40:29;;;;;;;18.20;12.55;;;;;;;2.93;89.38;100515.45;1735943;82;20944;-37
2021/01/01 09:43:05;;;;;;;24.63;14.83;;;;;;;2.92;89.54;100508.63;1735790;82;20979;-36
2021/01/01 09:45:34;;;;;;;24.25;14.43;;;;;;;2.91;89.69;100506.47;1735894;81;21196;-36
2021/01/01 09:48:03;;;;;;;21.93;13.75;;;;;;;2.95;89.75;100497.15;1735930;82;20940;-36
2021/01/01 09:50:32;;;;;;;20.48;14.18;;;;;;;2.98;89.82;100501.02;1735838;82;21423;-37
2021/01/01 09:53:02;;;;;;;24.00;14.05;;;;;;;2.98;89.75;100499.31;1735853;82;20983;-36
2021/01/01 09:55:31;;;;;;;25.88;15.08;;;;;;;2.95;89.82;100497.99;1735879;82;20920;-37
2021/01/01 09:57:59;;;;;;;25.12;14.25;;;;;;;2.97;89.91;100499.30;1735806;82;21197;-36
2021/01/01 10:00:29;;;;;;;24.40;13.78;;;;;;;3.01;89.88;100492.11;1732951;82;20983;-35
2021/01/01 10:02:57;;;;;;;23.87;13.72;;;;;;;3.02;89.87;100488.28;1736040;81;20948;-35
2021/01/01 10:05:27;;;;;;;18.67;12.73;;;;;;;3.04;89.93;100485.75;1735836;82;20964;-36
2021/01/01 10:07:55;;;;;;;21.23;12.98;;;;;;;3.05;89.98;100490.47;1735896;82;21015;-34
2021/01/01 10:10:24;;;;;;;22.93;13.68;;;;;;;3.07;90.00;100483.67;1735917;82;22532;-36
2021/01/01 10:12:53;;;;;;;21.10;13.15;;;;;;;3.10;90.03;100489.66;1735824;82;20940;-36
2021/01/01 10:15:21;;;;;;;19.75;12.93;;;;;;;3.09;90.06;100481.98;1735878;82;20972;-34
2021/01/01 10:17:50;;;;;;;19.32;12.43;;;;;;;3.09;90.17;100480.70;1735801;82;20928;-34
2021/01/01 10:20:18;;;;;;;20.48;12.70;;;;;;;3.10;90.22;100469.63;1735892;81;21609;-36
2021/01/01 10:22:48;;;;;;;24.05;13.32;;;;;;;3.11;90.26;100481.14;1735718;82;21473;-36
2021/01/01 10:25:17;;;;;;;16.35;12.23;;;;;;;3.16;90.39;100483.37;1735795;82;21047;-35
2021/01/01 10:27:47;;;;;;;18.67;12.88;;;;;;;3.20;90.37;100488.52;1735853;82;20983;-35
2021/01/01 10:30:16;;;;;;;20.57;13.32;;;;;;;3.21;90.46;100483.84;1735904;82;20993;-35
2021/01/01 10:32:44;;;;;;;21.50;12.30;;;;;;;3.21;90.49;100474.88;1735900;82;21008;-35
2021/01/01 10:35:14;;;;;;;18.57;12.60;;;;;;;3.25;90.51;100468.95;1735842;82;21360;-34
2021/01/01 10:37:43;;;;;;;19.95;13.22;;;;;;;3.26;90.56;100465.56;1735855;82;20944;-38
2021/01/01 10:40:14;;;;;;;21.30;12.18;;;;;;;3.30;90.61;100463.47;1735789;82;20952;-37
2021/01/01 10:42:42;;;;;;;22.10;13.05;;;;;;;3.32;90.68;100457.95;1735860;82;20937;-36
2021/01/01 10:45:14;;;;;;;21.55;12.58;;;;;;;3.35;90.78;100454.14;1734784;82;20980;-35
2021/01/01 10:47:42;;;;;;;18.60;11.60;;;;;;;3.41;90.75;100461.91;1735811;82;22177;-35
2021/01/01 10:50:11;;;;;;;21.00;11.95;;;;;;;3.47;90.75;100467.49;1735712;82;20948;-38
2021/01/01 10:52:39;;;;;;;18.92;12.03;;;;;;;3.51;90.75;100456.88;1735862;82;20937;-36
2021/01/01 10:55:09;;;;;;;19.67;12.30;;;;;;;3.55;90.75;100461.19;1735750;82;20987;-36
2021/01/01 10:57:37;;;;;;;20.70;10.58;;;;;;;3.58;90.73;100468.89;1735857;82;21031;-37
2021/01/01 11:00:09;;;;;;;15.63;10.65;;;;;;;3.61;90.70;100461.23;1735846;82;21370;-36
2021/01/01 11:02:37;;;;;;;14.43;10.75;;;;;;;3.61;90.70;100461.23;1735883;82;21007;-37
2021/01/01 11:05:11;;;;;;;12.80;9.40;;;;;;;3.62;90.55;100462.11;1746229;81;20999;-36
2021/01/01 11:07:39;;;;;;;13.85;9.98;;;;;;;3.62;90.57;100464.23;1749917;82;20924;-37
2021/01/01 11:10:09;;;;;;;16.97;10.25;;;;;;;3.62;90.57;100458.27;1749850;82;20987;-38
2021/01/01 11:12:38;;;;;;;16.30;9.65;;;;;;;3.64;90.55;100451.47;1749944;82;21208;-37
2021/01/01 12:19:21;;;;;;;14.75;9.93;;;;;;;3.66;90.48;100442.09;1749781;82;20979;-38
2021/01/01 12:26:36;;;;;;;34.00;16.82;;;;;;;3.54;90.73;100481.22;1775675;80;20931;-36
2021/01/01 12:29:06;;;;;;;34.03;16.75;;;;;;;3.57;90.80;100472.30;1775520;80;20979;-36
2021/01/01 12:31:34;;;;;;;35.35;17.05;;;;;;;3.57;90.81;100468.45;1775075;80;20987;-35
2021/01/01 12:34:03;;;;;;;33.90;18.77;;;;;;;3.57;90.84;100475.73;1753457;80;21158;-35
2021/01/01 12:36:32;;;;;;;28.50;17.07;;;;;;;3.59;90.87;100474.45;1775054;80;20995;-39
2021/01/01 12:39:00;;;;;;;35.58;18.98;;;;;;;3.61;90.87;100469.36;1774991;80;21011;-37